createdAt,value
2023-04-04T00:00:05.292Z,1.40
2023-04-04T00:02:34.808Z,1.40
2023-04-04T00:05:02.928Z,1.37
2023-04-04T00:07:30.964Z,1.37
2023-04-04T00:09:59.016Z,1.30
2023-04-04T00:12:30.149Z,1.60
2023-04-04T00:14:58.206Z,1.50
2023-04-04T00:17:26.256Z,1.57
2023-04-04T00:19:57.201Z,1.67
2023-04-04T00:22:25.254Z,1.60
2023-04-04T00:24:53.320Z,1.40
2023-04-04T00:27:21.740Z,1.57
2023-04-04T00:29:53.910Z,1.43
2023-04-04T00:32:22.129Z,1.30
2023-04-04T00:34:55.099Z,1.40
2023-04-04T00:37:23.388Z,1.60
2023-04-04T00:39:51.413Z,1.40
2023-04-04T00:42:19.474Z,1.70
2023-04-04T00:44:47.567Z,1.70
2023-04-04T00:47:15.658Z,1.53
2023-04-04T00:49:43.706Z,1.60
2023-04-04T00:52:13.139Z,1.43
2023-04-04T00:54:41.224Z,1.70
2023-04-04T00:57:09.278Z,1.37
2023-04-04T00:59:37.492Z,1.37
2023-04-04T01:02:05.643Z,1.67
2023-04-04T01:04:33.758Z,2.13
2023-04-04T01:07:02.185Z,1.70
2023-04-04T01:09:31.616Z,1.40
2023-04-04T01:11:59.654Z,1.27
2023-04-04T01:14:27.677Z,1.50
2023-04-04T01:16:55.787Z,1.47
2023-04-04T01:19:27.652Z,1.40
2023-04-04T01:21:55.773Z,1.63
2023-04-04T01:24:23.841Z,1.27
2023-04-04T01:26:53.355Z,1.50
2023-04-04T01:29:21.752Z,1.57
2023-04-04T01:31:52.695Z,1.70
2023-04-04T01:34:25.001Z,1.60
2023-04-04T01:36:55.267Z,2.17
2023-04-04T01:39:25.787Z,1.30
2023-04-04T01:41:55.554Z,1.37
2023-04-04T01:44:24.005Z,1.70
2023-04-04T01:46:54.983Z,1.60
2023-04-04T01:49:23.472Z,1.70
2023-04-04T01:51:51.595Z,1.60
2023-04-04T01:54:20.097Z,1.50
2023-04-04T01:56:48.141Z,1.40
2023-04-04T01:59:17.643Z,1.60
2023-04-04T02:01:45.753Z,1.70
2023-04-04T02:04:14.613Z,1.90
2023-04-04T02:06:42.722Z,1.47
2023-04-04T02:09:10.777Z,1.70
2023-04-04T02:11:39.099Z,1.50
2023-04-04T02:14:07.156Z,1.87
2023-04-04T02:16:36.564Z,2.00
2023-04-04T02:19:04.693Z,1.67
2023-04-04T02:21:32.719Z,1.90
2023-04-04T02:24:00.752Z,1.80
2023-04-04T02:26:28.819Z,1.67
2023-04-04T02:28:56.873Z,1.47
2023-04-04T02:31:25.005Z,2.13
2023-04-04T02:33:54.419Z,1.60
2023-04-04T02:36:22.524Z,1.87
2023-04-04T02:38:50.649Z,1.90
2023-04-04T02:41:18.712Z,1.73
2023-04-04T02:43:46.836Z,1.63
2023-04-04T02:46:21.650Z,1.80
2023-04-04T02:48:52.188Z,1.70
2023-04-04T02:51:21.702Z,1.70
2023-04-04T02:53:54.104Z,1.83
2023-04-04T02:56:22.188Z,2.10
2023-04-04T02:58:50.261Z,1.83
2023-04-04T03:01:18.479Z,1.47
2023-04-04T03:03:46.948Z,1.90
2023-04-04T03:06:15.644Z,2.10
2023-04-04T03:08:45.059Z,1.80
2023-04-04T03:11:13.471Z,1.70
2023-04-04T03:13:41.551Z,1.90
2023-04-04T03:16:10.161Z,1.70
2023-04-04T03:18:38.221Z,1.67
2023-04-04T03:21:06.406Z,2.10
2023-04-04T03:23:34.475Z,2.00
2023-04-04T03:26:03.878Z,1.83
2023-04-04T03:28:31.920Z,1.83
2023-04-04T03:31:04.756Z,2.30
2023-04-04T03:33:33.169Z,2.13
2023-04-04T03:36:01.233Z,1.70
2023-04-04T03:38:29.286Z,1.90
2023-04-04T03:41:04.378Z,2.13
2023-04-04T03:43:32.718Z,2.37
2023-04-04T03:46:03.645Z,2.50
2023-04-04T03:48:31.732Z,2.30
2023-04-04T03:50:59.806Z,2.13
2023-04-04T03:53:28.390Z,2.00
2023-04-04T03:55:56.950Z,1.93
2023-04-04T03:58:28.289Z,2.03
2023-04-04T04:00:56.537Z,1.83
2023-04-04T04:03:24.780Z,2.43
2023-04-04T04:05:53.604Z,2.73
2023-04-04T04:08:23.085Z,2.03
2023-04-04T04:10:51.973Z,2.10
2023-04-04T04:13:20.000Z,2.40
2023-04-04T04:15:49.503Z,2.13
2023-04-04T04:18:17.542Z,1.70
2023-04-04T04:20:45.618Z,2.57
2023-04-04T04:23:13.651Z,2.23
2023-04-04T04:25:41.750Z,2.30
2023-04-04T04:28:09.803Z,2.23
2023-04-04T04:30:38.048Z,2.30
2023-04-04T04:33:08.309Z,1.97
2023-04-04T04:35:37.826Z,2.50
2023-04-04T04:38:06.781Z,2.10
2023-04-04T04:40:34.873Z,1.97
2023-04-04T04:43:02.960Z,2.00
2023-04-04T04:45:31.476Z,2.10
2023-04-04T04:47:59.546Z,2.07
2023-04-04T04:50:28.999Z,2.07
2023-04-04T04:52:57.055Z,1.90
2023-04-04T04:55:25.262Z,2.07
2023-04-04T04:57:53.314Z,2.10
2023-04-04T05:00:22.398Z,2.40
2023-04-04T05:02:50.920Z,2.00
2023-04-04T05:05:19.071Z,2.00
2023-04-04T05:07:48.559Z,1.97
2023-04-04T05:10:16.691Z,2.10
2023-04-04T05:12:48.297Z,2.37
2023-04-04T05:15:16.664Z,2.00
2023-04-04T05:17:44.744Z,1.90
2023-04-04T05:20:13.284Z,2.37
2023-04-04T05:22:44.438Z,2.40
2023-04-04T05:25:13.823Z,2.50
2023-04-04T05:27:42.640Z,2.50
2023-04-04T05:30:11.180Z,2.30
2023-04-04T05:32:39.274Z,1.93
2023-04-04T05:35:08.074Z,1.90
2023-04-04T05:37:42.716Z,2.20
2023-04-04T05:40:11.522Z,2.10
2023-04-04T05:42:40.932Z,2.40
2023-04-04T05:45:12.412Z,2.30
2023-04-04T05:47:44.802Z,2.30
2023-04-04T05:50:12.910Z,2.20
2023-04-04T05:52:42.527Z,2.67
2023-04-04T05:55:10.731Z,2.40
2023-04-04T05:57:40.133Z,2.10
2023-04-04T06:00:09.712Z,2.17
2023-04-04T06:02:42.332Z,2.60
2023-04-04T06:05:10.990Z,2.67
2023-04-04T06:07:39.033Z,1.93
2023-04-04T06:10:08.757Z,2.20
2023-04-04T06:12:36.787Z,2.50
2023-04-04T06:15:07.219Z,2.30
2023-04-04T06:17:35.417Z,2.80
2023-04-04T06:20:05.185Z,2.30
2023-04-04T06:22:34.829Z,2.00
2023-04-04T06:25:02.869Z,2.10
2023-04-04T06:27:30.922Z,2.50
2023-04-04T06:29:59.009Z,2.10
2023-04-04T06:32:32.441Z,3.03
2023-04-04T06:35:07.062Z,3.00
2023-04-04T06:37:35.107Z,2.20
2023-04-04T06:40:03.130Z,2.73
2023-04-04T06:42:31.244Z,3.00
2023-04-04T06:44:59.354Z,2.63
2023-04-04T06:47:27.476Z,2.40
2023-04-04T06:49:56.934Z,2.93
2023-04-04T06:52:26.106Z,2.40
2023-04-04T06:54:54.162Z,2.90
2023-04-04T06:57:22.381Z,2.80
2023-04-04T06:59:50.675Z,2.80
2023-04-04T07:02:18.828Z,2.83
2023-04-04T07:04:47.123Z,3.50
2023-04-04T07:07:16.592Z,2.90
2023-04-04T07:09:44.726Z,3.23
2023-04-04T07:12:18.298Z,2.70
2023-04-04T07:14:46.342Z,3.03
2023-04-04T07:17:24.228Z,2.63
2023-04-04T07:19:53.322Z,3.03
2023-04-04T07:22:22.766Z,2.90
2023-04-04T07:24:50.822Z,3.20
2023-04-04T07:27:24.256Z,3.60
2023-04-04T07:29:52.318Z,3.93
2023-04-04T07:32:20.877Z,4.10
2023-04-04T07:34:50.502Z,3.20
2023-04-04T07:37:18.605Z,3.57
2023-04-04T07:39:49.992Z,3.00
2023-04-04T07:42:23.101Z,2.83
2023-04-04T07:44:51.296Z,3.50
2023-04-04T07:47:19.375Z,3.30
2023-04-04T07:49:47.557Z,3.10
2023-04-04T07:52:15.659Z,3.33
2023-04-04T07:54:43.769Z,2.83
2023-04-04T07:57:13.293Z,2.70
2023-04-04T07:59:41.381Z,2.93
2023-04-04T08:02:09.450Z,2.40
2023-04-04T08:04:42.457Z,2.60
2023-04-04T08:07:10.622Z,3.07
2023-04-04T08:09:38.695Z,3.33
2023-04-04T08:12:06.989Z,2.50
2023-04-04T08:14:36.596Z,2.47
2023-04-04T08:17:04.711Z,2.67
2023-04-04T08:19:32.807Z,2.40
2023-04-04T08:22:01.646Z,2.60
2023-04-04T08:24:29.772Z,2.40
2023-04-04T08:27:05.144Z,2.40
2023-04-04T08:29:34.384Z,2.50
2023-04-04T08:32:03.966Z,2.60
2023-04-04T08:34:36.435Z,2.43
2023-04-04T08:37:04.503Z,2.00
2023-04-04T08:39:32.570Z,1.87
2023-04-04T08:42:12.485Z,1.77
2023-04-04T08:44:40.753Z,1.90
2023-04-04T08:47:10.687Z,2.10
2023-04-04T08:49:39.927Z,2.00
2023-04-04T08:52:13.465Z,1.70
2023-04-04T08:54:41.926Z,2.27
2023-04-04T08:57:10.058Z,1.90
2023-04-04T08:59:42.617Z,1.80
2023-04-04T09:02:21.253Z,1.80
2023-04-04T09:05:05.591Z,1.80
2023-04-04T09:07:36.452Z,1.87
2023-04-04T09:10:07.105Z,1.90
2023-04-04T09:12:35.180Z,2.00
2023-04-04T09:15:03.521Z,1.60
2023-04-04T09:17:38.454Z,1.53
2023-04-04T09:20:32.620Z,1.40
2023-04-04T09:23:07.904Z,1.40
2023-04-04T09:25:36.260Z,1.90
2023-04-04T09:28:05.657Z,1.47
2023-04-04T09:30:35.620Z,1.70
2023-04-04T09:33:05.705Z,1.83
2023-04-04T09:35:35.588Z,1.57
2023-04-04T09:38:03.818Z,1.30
2023-04-04T09:40:37.099Z,1.80
2023-04-04T09:43:08.827Z,1.60
2023-04-04T09:45:37.958Z,1.43
2023-04-04T09:48:07.672Z,1.20
2023-04-04T09:50:35.822Z,2.17
2023-04-04T09:53:03.876Z,1.53
2023-04-04T09:55:36.520Z,1.60
2023-04-04T09:58:12.800Z,1.80
2023-04-04T10:00:44.880Z,1.40
2023-04-04T10:03:15.435Z,1.47
2023-04-04T10:05:43.528Z,2.00
2023-04-04T10:08:16.882Z,1.23
2023-04-04T10:11:02.581Z,1.43
2023-04-04T10:13:40.983Z,1.30
2023-04-04T10:16:10.777Z,1.40
2023-04-04T10:18:40.862Z,1.50
2023-04-04T10:21:15.780Z,1.30
2023-04-04T10:23:45.521Z,1.67
2023-04-04T10:26:18.455Z,1.83
2023-04-04T10:28:46.514Z,2.00
2023-04-04T10:31:21.509Z,1.47
2023-04-04T10:33:53.944Z,1.50
2023-04-04T10:36:23.877Z,1.00
2023-04-04T10:38:58.439Z,1.00
2023-04-04T10:41:27.170Z,1.13
2023-04-04T10:44:02.120Z,1.90
2023-04-04T10:46:31.117Z,1.77
2023-04-04T10:49:01.260Z,1.40
2023-04-04T10:51:29.307Z,1.33
2023-04-04T10:54:00.461Z,1.17
2023-04-04T10:56:30.845Z,1.40
2023-04-04T10:59:11.453Z,1.50
2023-04-04T11:01:49.648Z,1.10
2023-04-04T11:04:21.464Z,1.07
2023-04-04T11:07:12.082Z,0.90
2023-04-04T11:09:53.653Z,1.00
2023-04-04T11:12:30.009Z,1.23
2023-04-04T11:14:59.332Z,1.57
2023-04-04T11:18:00.783Z,1.20
2023-04-04T11:20:34.599Z,1.27
2023-04-04T11:23:10.042Z,1.47
2023-04-04T11:25:39.733Z,1.30
2023-04-04T11:28:09.644Z,0.93
2023-04-04T11:30:44.100Z,0.90
2023-04-04T11:33:14.013Z,1.00
2023-04-04T11:35:47.193Z,1.57
2023-04-04T11:38:16.068Z,1.10
2023-04-04T11:40:44.471Z,1.20
2023-04-04T11:43:12.889Z,1.33
2023-04-04T11:45:45.328Z,1.20
2023-04-04T11:48:14.005Z,0.83
2023-04-04T11:50:44.685Z,1.20
2023-04-04T11:53:12.774Z,1.03
2023-04-04T11:55:42.796Z,1.00
2023-04-04T11:58:13.159Z,1.10
2023-04-04T12:00:41.730Z,1.10
2023-04-04T12:03:11.470Z,0.87
2023-04-04T12:05:40.392Z,1.27
2023-04-04T12:08:11.013Z,1.33
2023-04-04T12:10:44.403Z,1.30
2023-04-04T12:13:13.229Z,0.87
2023-04-04T12:15:42.911Z,0.97
2023-04-04T12:18:11.252Z,1.07
2023-04-04T12:20:41.096Z,0.83
2023-04-04T12:23:10.705Z,1.30
2023-04-04T12:25:40.352Z,1.07
2023-04-04T12:28:08.851Z,1.23
2023-04-04T12:30:36.936Z,1.27
2023-04-04T12:33:05.235Z,1.10
2023-04-04T12:35:33.445Z,0.87
2023-04-04T12:38:02.874Z,0.80
2023-04-04T12:40:33.317Z,1.20
2023-04-04T12:43:02.278Z,1.00
2023-04-04T12:45:30.828Z,1.43
2023-04-04T12:47:59.272Z,1.00
2023-04-04T12:50:30.878Z,0.90
2023-04-04T12:53:13.324Z,0.83
2023-04-04T12:55:49.355Z,1.20
2023-04-04T12:58:18.067Z,1.20
2023-04-04T13:00:46.217Z,1.00
2023-04-04T13:03:15.587Z,1.10
2023-04-04T13:05:44.386Z,1.13
2023-04-04T13:08:12.750Z,1.00
2023-04-04T13:11:02.577Z,0.70
2023-04-04T13:13:34.681Z,1.30
2023-04-04T13:16:02.765Z,1.00
2023-04-04T13:18:34.952Z,0.90
2023-04-04T13:21:03.004Z,0.90
2023-04-04T13:23:31.270Z,1.43
2023-04-04T13:26:00.860Z,1.00
2023-04-04T13:28:28.970Z,1.10
2023-04-04T13:30:57.542Z,1.03
2023-04-04T13:33:25.623Z,0.93
2023-04-04T13:35:53.801Z,1.07
2023-04-04T13:38:21.856Z,1.07
2023-04-04T13:40:49.946Z,0.80
2023-04-04T13:43:19.425Z,1.10
2023-04-04T13:45:47.900Z,0.90
2023-04-04T13:48:16.541Z,0.97
2023-04-04T13:50:47.658Z,0.80
2023-04-04T13:53:15.804Z,1.17
2023-04-04T13:56:02.181Z,0.90
2023-04-04T13:58:38.144Z,1.10
2023-04-04T14:01:07.074Z,1.00
2023-04-04T14:03:35.314Z,1.33
2023-04-04T14:06:09.706Z,1.10
2023-04-04T14:08:38.243Z,1.30
2023-04-04T14:11:06.747Z,1.00
2023-04-04T14:13:38.149Z,1.03
2023-04-04T14:16:08.094Z,1.20
2023-04-04T14:18:36.281Z,1.30
2023-04-04T14:21:04.438Z,0.97
2023-04-04T14:23:33.010Z,0.97
2023-04-04T14:26:01.234Z,1.10
2023-04-04T14:28:29.390Z,1.00
2023-04-04T14:30:58.854Z,1.03
2023-04-04T14:33:27.118Z,1.10
2023-04-04T14:35:55.186Z,1.00
2023-04-04T14:38:23.367Z,1.10
2023-04-04T14:40:54.661Z,0.80
2023-04-04T14:43:22.873Z,0.73
2023-04-04T14:45:50.956Z,1.00
2023-04-04T14:48:20.384Z,0.80
2023-04-04T14:50:48.472Z,1.00
2023-04-04T14:53:16.669Z,1.00
2023-04-04T14:55:44.775Z,1.10
2023-04-04T14:58:13.170Z,0.87
2023-04-04T15:00:41.273Z,0.93
2023-04-04T15:03:09.368Z,0.90
2023-04-04T15:05:39.232Z,0.90
2023-04-04T15:08:07.453Z,1.10
2023-04-04T15:10:35.499Z,0.80
2023-04-04T15:13:03.549Z,1.00
2023-04-04T15:15:32.603Z,1.17
2023-04-04T15:18:00.743Z,1.17
2023-04-04T15:20:28.891Z,0.83
2023-04-04T15:22:58.308Z,0.93
2023-04-04T15:25:26.362Z,1.17
2023-04-04T15:27:54.410Z,1.10
2023-04-04T15:30:23.589Z,0.80
2023-04-04T15:32:53.944Z,0.70
2023-04-04T15:35:22.608Z,1.10
2023-04-04T15:37:54.689Z,0.80
2023-04-04T15:40:24.294Z,1.10
2023-04-04T15:42:52.440Z,0.97
2023-04-04T15:45:20.512Z,1.07
2023-04-04T15:47:48.954Z,0.60
2023-04-04T15:50:17.056Z,0.90
2023-04-04T15:52:45.123Z,1.00
2023-04-04T15:55:20.032Z,0.70
2023-04-04T15:57:51.326Z,1.00
2023-04-04T16:00:19.725Z,1.20
2023-04-04T16:02:47.992Z,0.97
2023-04-04T16:05:17.292Z,0.83
2023-04-04T16:07:45.699Z,0.80
2023-04-04T16:10:13.805Z,0.90
2023-04-04T16:12:41.874Z,0.83
2023-04-04T16:15:12.718Z,0.80
2023-04-04T16:17:48.811Z,0.80
2023-04-04T16:20:17.377Z,0.83
2023-04-04T16:22:45.585Z,1.13
2023-04-04T16:25:19.104Z,0.70
2023-04-04T16:27:47.154Z,1.10
2023-04-04T16:30:17.276Z,1.20
2023-04-04T16:32:46.681Z,0.83
2023-04-04T16:35:14.807Z,0.70
2023-04-04T16:37:42.921Z,0.73
2023-04-04T16:40:12.751Z,0.80
2023-04-04T16:42:42.756Z,0.83
2023-04-04T16:45:13.125Z,0.90
2023-04-04T16:47:42.664Z,1.00
2023-04-04T16:50:11.601Z,0.90
2023-04-04T16:52:39.668Z,0.90
2023-04-04T16:55:10.115Z,0.80
2023-04-04T16:57:43.640Z,1.00
2023-04-04T17:00:12.705Z,1.00
2023-04-04T17:02:45.646Z,1.00
2023-04-04T17:05:18.772Z,1.03
2023-04-04T17:08:06.450Z,0.93
2023-04-04T17:10:35.909Z,1.00
2023-04-04T17:13:05.856Z,1.10
2023-04-04T17:15:33.928Z,1.10
2023-04-04T17:18:04.343Z,1.00
2023-04-04T17:20:34.413Z,0.80
2023-04-04T17:23:18.785Z,0.97
2023-04-04T17:25:48.850Z,1.00
2023-04-04T17:28:19.406Z,1.00
2023-04-04T17:30:48.821Z,1.20
2023-04-04T17:33:18.308Z,1.00
2023-04-04T17:35:48.201Z,0.90
2023-04-04T17:38:20.608Z,1.20
2023-04-04T17:40:49.037Z,1.20
2023-04-04T17:43:17.115Z,1.10
2023-04-04T17:45:45.370Z,0.97
2023-04-04T17:48:13.514Z,1.13
2023-04-04T17:50:43.264Z,0.90
2023-04-04T17:53:11.435Z,1.10
2023-04-04T17:55:40.530Z,0.80
2023-04-04T17:58:08.655Z,1.30
2023-04-04T18:00:36.936Z,1.20
2023-04-04T18:03:05.322Z,1.00
2023-04-04T18:05:33.532Z,1.13
2023-04-04T18:08:04.884Z,1.07
2023-04-04T18:10:37.131Z,1.13
2023-04-04T18:13:05.421Z,1.30
2023-04-04T18:15:33.793Z,0.97
2023-04-04T18:18:08.045Z,1.03
2023-04-04T18:20:36.649Z,1.30
2023-04-04T18:23:06.129Z,1.10
2023-04-04T18:25:34.338Z,0.87
2023-04-04T18:28:03.195Z,1.40
2023-04-04T18:30:31.897Z,1.00
2023-04-04T18:33:00.387Z,1.07
2023-04-04T18:35:28.524Z,1.10
2023-04-04T18:38:00.832Z,1.10
2023-04-04T18:40:32.239Z,1.13
2023-04-04T18:43:01.256Z,1.07
2023-04-04T18:45:39.233Z,0.77
2023-04-04T18:48:09.287Z,0.80
2023-04-04T18:50:37.559Z,1.13
2023-04-04T18:53:05.667Z,0.87
2023-04-04T18:55:35.080Z,1.00
2023-04-04T18:58:03.132Z,1.43
2023-04-04T19:00:31.294Z,0.80
2023-04-04T19:02:59.399Z,1.20
2023-04-04T19:05:27.600Z,0.90
2023-04-04T19:07:56.123Z,0.90
2023-04-04T19:10:24.282Z,1.47
2023-04-04T19:12:54.213Z,1.03
2023-04-04T19:15:22.505Z,1.27
2023-04-04T19:17:51.030Z,1.00
2023-04-04T19:20:19.272Z,1.00
2023-04-04T19:22:48.884Z,1.40
2023-04-04T19:25:20.293Z,1.33
2023-04-04T19:27:48.359Z,1.13
2023-04-04T19:30:37.869Z,1.20
2023-04-04T19:33:06.783Z,1.10
2023-04-04T19:35:54.875Z,1.17
2023-04-04T19:38:25.426Z,1.20
2023-04-04T19:40:55.041Z,1.10
2023-04-04T19:43:23.203Z,1.50
2023-04-04T19:45:53.064Z,1.10
2023-04-04T19:48:44.237Z,1.37
2023-04-04T19:51:28.877Z,1.20
2023-04-04T19:53:57.907Z,1.23
2023-04-04T19:56:37.348Z,1.17
2023-04-04T19:59:10.537Z,1.20
2023-04-04T20:01:47.324Z,1.17
2023-04-04T20:04:22.308Z,1.30
2023-04-04T20:06:50.511Z,1.40
2023-04-04T20:09:31.544Z,1.60
2023-04-04T20:11:59.652Z,1.47
2023-04-04T20:14:27.719Z,1.53
2023-04-04T20:16:57.214Z,1.57
2023-04-04T20:19:25.483Z,1.57
2023-04-04T20:21:53.555Z,1.50
2023-04-04T20:24:30.964Z,1.40
2023-04-04T20:26:59.655Z,1.40
2023-04-04T20:29:28.684Z,1.60
2023-04-04T20:31:59.640Z,1.70
2023-04-04T20:34:33.466Z,1.23
2023-04-04T20:37:03.285Z,1.60
2023-04-04T20:39:39.244Z,1.53
2023-04-04T20:42:21.207Z,1.60
2023-04-04T20:44:54.951Z,1.60
2023-04-04T20:47:47.955Z,1.23
2023-04-04T20:50:36.436Z,1.50
2023-04-04T20:53:04.959Z,1.57
2023-04-04T20:55:33.998Z,1.80
2023-04-04T20:58:11.194Z,1.47
2023-04-04T21:00:43.459Z,1.30
2023-04-04T21:03:24.279Z,1.53
2023-04-04T21:05:52.689Z,1.50
2023-04-04T21:08:42.676Z,1.20
2023-04-04T21:11:11.395Z,1.47
2023-04-04T21:13:40.089Z,1.60
2023-04-04T21:16:09.298Z,1.63
2023-04-04T21:18:39.603Z,1.70
2023-04-04T21:21:19.875Z,1.80
2023-04-04T21:23:49.672Z,1.80
2023-04-04T21:26:33.986Z,1.50
2023-04-04T21:29:03.402Z,1.80
2023-04-04T21:31:36.297Z,1.77
2023-04-04T21:34:10.686Z,1.70
2023-04-04T21:36:38.751Z,1.53
2023-04-04T21:39:08.529Z,1.47
2023-04-04T21:41:36.612Z,1.80
2023-04-04T21:44:06.255Z,1.80
2023-04-04T21:46:35.232Z,1.50
2023-04-04T21:49:03.325Z,1.47
2023-04-04T21:51:32.743Z,1.80
2023-04-04T21:54:00.945Z,1.60
2023-04-04T21:56:31.549Z,1.90
2023-04-04T21:58:59.772Z,1.80
2023-04-04T22:01:27.978Z,1.73
2023-04-04T22:03:56.176Z,1.47
2023-04-04T22:06:25.434Z,1.77
2023-04-04T22:08:54.855Z,2.00
2023-04-04T22:11:23.115Z,1.87
2023-04-04T22:13:51.462Z,1.93
2023-04-04T22:16:20.459Z,1.73
2023-04-04T22:18:52.028Z,2.00
2023-04-04T22:21:25.659Z,2.07
2023-04-04T22:24:00.827Z,1.80
2023-04-04T22:26:33.396Z,1.87
2023-04-04T22:29:08.706Z,1.80
2023-04-04T22:31:37.916Z,2.13
2023-04-04T22:34:07.046Z,2.00
2023-04-04T22:36:35.680Z,2.20
2023-04-04T22:39:05.785Z,1.87
2023-04-04T22:41:33.837Z,2.20
2023-04-04T22:44:01.934Z,2.10
2023-04-04T22:46:30.114Z,2.00
2023-04-04T22:49:05.752Z,2.63
2023-04-04T22:51:43.972Z,1.97
2023-04-04T22:54:14.802Z,2.30
2023-04-04T22:56:43.140Z,2.20
2023-04-04T22:59:11.474Z,1.80
2023-04-04T23:01:39.769Z,2.10
2023-04-04T23:04:08.242Z,2.00
2023-04-04T23:06:38.484Z,1.97
2023-04-04T23:09:07.929Z,2.20
2023-04-04T23:11:38.885Z,2.40
2023-04-04T23:14:09.057Z,2.27
2023-04-04T23:16:43.457Z,2.20
2023-04-04T23:19:11.520Z,1.97
2023-04-04T23:21:43.811Z,2.03
2023-04-04T23:24:12.030Z,2.50
2023-04-04T23:26:41.521Z,2.90
2023-04-04T23:29:09.882Z,2.20
2023-04-04T23:31:38.051Z,2.07
2023-04-04T23:34:24.625Z,2.27
2023-04-04T23:36:52.695Z,2.20
2023-04-04T23:39:20.724Z,2.23
2023-04-04T23:41:50.223Z,2.23
2023-04-04T23:44:18.635Z,2.40
2023-04-04T23:46:47.472Z,1.90
2023-04-04T23:49:15.655Z,2.37
2023-04-04T23:51:44.824Z,2.07
2023-04-04T23:54:13.478Z,2.63
2023-04-04T23:56:41.625Z,2.27
2023-04-04T23:59:11.484Z,2.07
